Terminal Aerodrome Forecast
Issued by NWS Knoxville/Tri Cities, TN

Home | Current Version | Previous Version | Text Only | Print | Product List | Glossary On
Versions: 1 2 3 4 5 6 7 8 9 10 11 12 13 14 15 16 17 18 19 20 21 22 23 24 25 26 27 28 29 30 31 32 33 34
000
FTUS44 KMRX 060523
TAFTYS
TAF
KTYS 060523Z 0606/0706 24004KT P6SM SCT025 OVC080
     FM060800 23003KT 4SM BR BKN020
      TEMPO 0608/0611 2SM BR SCT005 BKN010
     FM061330 23005KT P6SM BKN025
     FM061500 24008KT P6SM SCT040 SCT250
     FM070100 23004KT P6SM FEW050=

USA.gov is the U.S. government's official web portal to all federal, state and local government web resources and services.